^^
Datos históricos de la estación: Murcia-Puente Tocinos
Diario Informe para Agosto 7, 2019 Unidades:  Métrico    Ingés   Ambas
Diario Semanal Mensual Anual
  Máxima: Mínima: Promedio:
Temperatura: 27.8 °C 21.8 °C 24.3 °C
Punto de rocio: 19.9 °C 16.9 °C 18.4 °C
Humedad: 84% 52.1% 70%
Velocidad viento: 18km/h 0km/h 8.3km/h
Racha viento: 35.4km/h - -
Viento- - Este
Presión: 1017.7 hPa 1015.1 hPa -
Precipitación: 0.0 mm    
 
 
Tabla de datos para Agosto 7, 2019
Hora Temperatura Punto de rocio Presión Viento Velocidad viento Racha viento Humedad Intensidad lluvia(por hora) Nubes
00:04 23.7 °C 19.6 °C 1017.2 hPa NE 6.9 km/h 11.3 km/h 78% 0.0 mm
00:09 23.7 °C 19.6 °C 1017.1 hPa NE 6.9 km/h 14.8 km/h 78% 0.0 mm
00:14 23.7 °C 19.7 °C 1017.1 hPa NE 6.9 km/h 14.5 km/h 78.2% 0.0 mm
00:19 23.7 °C 19.8 °C 1017.2 hPa NE 6.9 km/h 12.9 km/h 79% 0.0 mm
00:24 23.6 °C 19.7 °C 1017.2 hPa NE 6.5 km/h 11.1 km/h 79% 0.0 mm
00:29 23.6 °C 19.9 °C 1017.2 hPa NE 6.4 km/h 11.3 km/h 79.8% 0.0 mm
00:34 23.4 °C 19.8 °C 1017.2 hPa NE 5.8 km/h 11.1 km/h 80% 0.0 mm
00:39 23.4 °C 19.8 °C 1017.2 hPa NE 6 km/h 11.3 km/h 80% 0.0 mm
00:44 23.3 °C 19.8 °C 1017.2 hPa NE 6.9 km/h 11.3 km/h 80.4% 0.0 mm
00:49 23.4 °C 19.9 °C 1017.2 hPa NE 6.9 km/h 11.3 km/h 81% 0.0 mm
00:54 23.4 °C 19.9 °C 1017.1 hPa NE 6.5 km/h 9.7 km/h 81% 0.0 mm
00:59 23.4 °C 19.9 °C 1017.1 hPa NE 6.3 km/h 9.7 km/h 81% 0.0 mm
01:04 23.4 °C 19.9 °C 1017.2 hPa NE 5.8 km/h 11.1 km/h 81% 0.0 mm
01:09 23.4 °C 19.9 °C 1017.2 hPa NE 5.9 km/h 11.9 km/h 81% 0.0 mm
01:14 23.4 °C 19.9 °C 1017.2 hPa NE 6.9 km/h 11.3 km/h 81% 0.0 mm
01:19 23.3 °C 19.8 °C 1017.2 hPa NE 6.9 km/h 11.1 km/h 81% 0.0 mm
01:24 23.3 °C 19.8 °C 1017.2 hPa NE 6.5 km/h 11.3 km/h 81% 0.0 mm
01:29 23.2 °C 19.9 °C 1017.2 hPa NE 6.6 km/h 11.3 km/h 81.8% 0.0 mm
01:34 23.2 °C 19.8 °C 1017.3 hPa NE 7.6 km/h 11.3 km/h 81.4% 0.0 mm
01:39 23.1 °C 19.7 °C 1017.3 hPa NE 7.5 km/h 11.3 km/h 81% 0.0 mm
01:44 23.1 °C 19.7 °C 1017.3 hPa NE 6.9 km/h 11.3 km/h 81% 0.0 mm
01:49 23.1 °C 19.7 °C 1017.3 hPa NE 6.9 km/h 11.3 km/h 81% 0.0 mm
01:54 23 °C 19.6 °C 1017.3 hPa NE 6.9 km/h 11.3 km/h 81% 0.0 mm
01:59 23 °C 19.6 °C 1017.3 hPa NE 6.7 km/h 11.1 km/h 81% 0.0 mm
02:04 23 °C 19.6 °C 1017.4 hPa NE 5.8 km/h 11.3 km/h 81% 0.0 mm
02:09 23 °C 19.5 °C 1017.4 hPa NE 5.9 km/h 11.3 km/h 81% 0.0 mm
02:14 22.9 °C 19.4 °C 1017.4 hPa NE 6.4 km/h 11.3 km/h 81% 0.0 mm
02:19 22.9 °C 19.4 °C 1017.4 hPa NE 6.5 km/h 11.3 km/h 81% 0.0 mm
02:24 22.9 °C 19.4 °C 1017.4 hPa NE 6.5 km/h 9.7 km/h 81% 0.0 mm
02:29 22.9 °C 19.4 °C 1017.4 hPa NE 6.3 km/h 8.4 km/h 81% 0.0 mm
02:34 22.9 °C 19.4 °C 1017.4 hPa NE 5 km/h 8.4 km/h 81% 0.0 mm
02:39 22.9 °C 19.4 °C 1017.3 hPa NE 5 km/h 8.4 km/h 81% 0.0 mm
02:44 22.9 °C 19.4 °C 1017.3 hPa NE 5 km/h 8 km/h 81% 0.0 mm
02:49 22.9 °C 19.4 °C 1017.4 hPa North 4.8 km/h 8 km/h 81% 0.0 mm
02:54 22.9 °C 19.4 °C 1017.4 hPa NNO 3.9 km/h 6.4 km/h 81% 0.0 mm
02:59 22.9 °C 19.4 °C 1017.4 hPa NNE 3.6 km/h 5.8 km/h 81% 0.0 mm
03:04 22.9 °C 19.4 °C 1017.4 hPa NNE 2.3 km/h 7.4 km/h 81% 0.0 mm
03:09 22.8 °C 19.4 °C 1017.3 hPa NNE 2.5 km/h 8.4 km/h 81% 0.0 mm
03:14 22.8 °C 19.4 °C 1017.3 hPa NNE 3.9 km/h 8 km/h 81% 0.0 mm
03:19 22.8 °C 19.4 °C 1017.3 hPa NNE 4 km/h 8 km/h 81% 0.0 mm
03:24 22.8 °C 19.4 °C 1017.2 hPa North 4.7 km/h 8 km/h 81% 0.0 mm
03:29 22.8 °C 19.3 °C 1017.2 hPa NNE 4.5 km/h 5.8 km/h 81% 0.0 mm
03:34 22.7 °C 19.4 °C 1017.2 hPa North 3.2 km/h 6.4 km/h 81.4% 0.0 mm
03:39 22.7 °C 19.4 °C 1017.1 hPa NNO 3.2 km/h 6.4 km/h 82% 0.0 mm
03:44 22.7 °C 19.3 °C 1017.1 hPa North 2.9 km/h 3.9 km/h 81.3% 0.0 mm
03:49 22.7 °C 19.4 °C 1017.1 hPa NNE 2.5 km/h 3.9 km/h 82% 0.0 mm
03:54 22.7 °C 19.4 °C 1017.1 hPa Calm   7.4 km/h 82% 0.0 mm
03:59 22.7 °C 19.4 °C 1017.1 hPa NNO 0.5 km/h 8 km/h 82% 0.0 mm
04:04 22.7 °C 19.4 °C 1017.1 hPa NNO 2.9 km/h 6.4 km/h 82% 0.0 mm
04:09 22.6 °C 19.4 °C 1017.0 hPa North 2.8 km/h 7.4 km/h 82% 0.0 mm
04:14 22.6 °C 19.4 °C 1017.0 hPa NNO 2.2 km/h 8 km/h 82% 0.0 mm
04:19 22.6 °C 19.4 °C 1017.0 hPa North 2.4 km/h 8 km/h 82% 0.0 mm
04:24 22.6 °C 19.4 °C 1017.0 hPa North 3.2 km/h 6.4 km/h 82% 0.0 mm
04:29 22.6 °C 19.4 °C 1017.0 hPa NNO 3.2 km/h 5.8 km/h 82% 0.0 mm
04:34 22.5 °C 19.3 °C 1017.0 hPa NNO 2.9 km/h 7.4 km/h 82% 0.0 mm
04:39 22.4 °C 19.2 °C 1016.9 hPa North 3 km/h 8 km/h 82% 0.0 mm
04:44 22.4 °C 19.2 °C 1016.9 hPa North 3.9 km/h 8 km/h 82% 0.0 mm
04:49 22.4 °C 19.2 °C 1016.9 hPa NNE 3.9 km/h 8 km/h 82% 0.0 mm
04:54 22.4 °C 19.2 °C 1016.8 hPa NE 3.9 km/h 8 km/h 82% 0.0 mm
04:59 22.4 °C 19.2 °C 1016.8 hPa NE 3.9 km/h 8 km/h 82% 0.0 mm
05:04 22.4 °C 19.2 °C 1016.8 hPa NNE 3.9 km/h 8 km/h 82% 0.0 mm
05:09 22.5 °C 19.3 °C 1016.7 hPa NE 4 km/h 8 km/h 82% 0.0 mm
05:14 22.5 °C 19.4 °C 1016.6 hPa NE 4.7 km/h 8 km/h 82.7% 0.0 mm
05:19 22.5 °C 19.3 °C 1016.6 hPa NE 4.7 km/h 8.4 km/h 82.1% 0.0 mm
05:24 22.4 °C 19.2 °C 1016.6 hPa NE 5 km/h 8 km/h 82% 0.0 mm
05:29 22.4 °C 19.2 °C 1016.6 hPa NE 5 km/h 8 km/h 82% 0.0 mm
05:34 22.4 °C 19.2 °C 1016.6 hPa NNE 5 km/h 8 km/h 82% 0.0 mm
05:39 22.4 °C 19.2 °C 1016.5 hPa NE 5 km/h 8.4 km/h 82% 0.0 mm
05:44 22.4 °C 19.3 °C 1016.4 hPa NNE 5 km/h 8 km/h 82.4% 0.0 mm
05:49 22.3 °C 19.3 °C 1016.4 hPa NNE 4.7 km/h 8 km/h 83% 0.0 mm
05:54 22.3 °C 19.3 °C 1016.3 hPa NNE 3.2 km/h 8 km/h 83% 0.0 mm
05:59 22.3 °C 19.3 °C 1016.3 hPa NE 3.2 km/h 8 km/h 83.2% 0.0 mm
06:04 22.2 °C 19.4 °C 1016.4 hPa NE 3.2 km/h 8 km/h 84% 0.0 mm
06:09 22.2 °C 19.4 °C 1016.4 hPa NE 3.2 km/h 7.4 km/h 84% 0.0 mm
06:14 22.1 °C 19.3 °C 1016.4 hPa ENE 2.9 km/h 8 km/h 84% 0.0 mm
06:19 22.1 °C 19.3 °C 1016.4 hPa NE 3 km/h 8 km/h 84% 0.0 mm
06:24 22.1 °C 19.3 °C 1016.4 hPa NE 3.9 km/h 6.4 km/h 84% 0.0 mm
06:29 22.1 °C 19.3 °C 1016.4 hPa NE 3.8 km/h 6.4 km/h 84% 0.0 mm
06:34 22.1 °C 19.3 °C 1016.4 hPa NE 3.2 km/h 6.4 km/h 84% 0.0 mm
06:39 22 °C 19.2 °C 1016.4 hPa NE 3.2 km/h 8 km/h 84% 0.0 mm
06:44 22 °C 19.2 °C 1016.4 hPa NNE 2.9 km/h 7.4 km/h 84% 0.0 mm
06:49 21.9 °C 19.1 °C 1016.4 hPa North 2.9 km/h 8 km/h 84% 0.0 mm
06:54 21.9 °C 19.1 °C 1016.4 hPa North 3.2 km/h 4.8 km/h 84% 0.0 mm
06:59 21.9 °C 19.1 °C 1016.4 hPa North 2.6 km/h   84% 0.0 mm
07:04 21.9 °C 19.1 °C 1016.5 hPa Calm     84% 0.0 mm
07:09 21.9 °C 19.1 °C 1016.5 hPa NE 0.3 km/h 5.6 km/h 84% 0.0 mm
07:14 21.9 °C 19.1 °C 1016.5 hPa NE 2.2 km/h 4.8 km/h 84% 0.0 mm
07:19 21.9 °C 19.1 °C 1016.5 hPa NE 2 km/h 5.8 km/h 84% 0.0 mm
07:24 21.9 °C 19.1 °C 1016.5 hPa Calm   6.4 km/h 84% 0.0 mm
07:29 21.9 °C 19.1 °C 1016.5 hPa ESE 0.4 km/h 5.6 km/h 84% 0.0 mm
07:34 21.9 °C 19.1 °C 1016.7 hPa ESE 2.9 km/h 5.6 km/h 84% 0.0 mm
07:39 21.9 °C 19 °C 1016.7 hPa ESE 2.9 km/h 7.4 km/h 84% 0.0 mm
07:44 21.8 °C 19 °C 1016.7 hPa ESE 2.9 km/h 8 km/h 84% 0.0 mm
07:49 21.8 °C 19 °C 1016.9 hPa ESE 2.8 km/h 6.4 km/h 84% 0.0 mm
07:54 21.8 °C 18.9 °C 1016.9 hPa SE 2.2 km/h 8 km/h 83.3% 0.0 mm
07:59 21.8 °C 19 °C 1016.9 hPa ESE 2.2 km/h 8 km/h 83.9% 0.0 mm
08:04 21.8 °C 19 °C 1017.1 hPa ESE 2.2 km/h   84% 0.0 mm
08:09 21.9 °C 19.1 °C 1017.1 hPa ESE 1.9 km/h   84% 0.0 mm
08:14 21.9 °C 19.1 °C 1017.1 hPa Calm   5.6 km/h 84% 0.0 mm
08:19 21.9 °C 19 °C 1017.1 hPa Oeste 0.3 km/h 4.8 km/h 84% 0.0 mm
08:24 21.9 °C 19.1 °C 1017.1 hPa Oeste 2.2 km/h 3.7 km/h 84% 0.0 mm
08:29 21.9 °C 19.1 °C 1017.1 hPa NO 1.9 km/h 3.7 km/h 84% 0.0 mm
08:34 22 °C 19.2 °C 1017.3 hPa Calm   4.7 km/h 84% 0.0 mm
08:39 22.1 °C 19.3 °C 1017.3 hPa Calm   4.8 km/h 84% 0.0 mm
08:44 22.2 °C 19.2 °C 1017.3 hPa Calm   5.6 km/h 83.1% 0.0 mm
08:49 22.3 °C 19.2 °C 1017.4 hPa NNO 0.3 km/h 5.6 km/h 83% 0.0 mm
08:54 22.3 °C 19.2 °C 1017.4 hPa NNO 2.2 km/h 7.6 km/h 82.6% 0.0 mm
08:59 22.4 °C 19.2 °C 1017.4 hPa North 2.5 km/h 8 km/h 82.2% 0.0 mm
09:04 22.5 °C 19.4 °C 1017.4 hPa NNO 3.9 km/h 8.4 km/h 82.6% 0.0 mm
09:09 22.6 °C 19.4 °C 1017.4 hPa North 4 km/h 8 km/h 82% 0.0 mm
09:14 22.8 °C 19.5 °C 1017.4 hPa NNE 4.7 km/h 9.3 km/h 82% 0.0 mm
09:19 22.9 °C 19.5 °C 1017.4 hPa NNE 4.7 km/h 11.1 km/h 81.1% 0.0 mm
09:24 22.9 °C 19.5 °C 1017.4 hPa NNE 5 km/h 11.3 km/h 81% 0.0 mm
09:29 22.9 °C 19.5 °C 1017.4 hPa NNE 5.2 km/h 11.3 km/h 81% 0.0 mm
09:34 23.1 °C 19.6 °C 1017.4 hPa NE 6.4 km/h 9.7 km/h 81% 0.0 mm
09:39 23.2 °C 19.6 °C 1017.4 hPa NE 6.2 km/h 8 km/h 80% 0.0 mm
09:44 23.3 °C 19.7 °C 1017.4 hPa NE 4.7 km/h 8.4 km/h 80% 0.0 mm
09:49 23.3 °C 19.7 °C 1017.6 hPa ENE 4.7 km/h 9.5 km/h 80% 0.0 mm
09:54 23.4 °C 19.8 °C 1017.6 hPa NE 5 km/h 9.7 km/h 80% 0.0 mm
09:59 23.6 °C 19.8 °C 1017.6 hPa North 4.8 km/h 8 km/h 79.5% 0.0 mm
10:04 23.7 °C 19.8 °C 1017.6 hPa NO 3.9 km/h 11.1 km/h 79% 0.0 mm
10:09 23.7 °C 19.7 °C 1017.6 hPa NNE 3.9 km/h 11.3 km/h 78.3% 0.0 mm
10:14 23.9 °C 19.7 °C 1017.6 hPa NE 3.9 km/h 11.1 km/h 77.8% 0.0 mm
10:19 24 °C 19.6 °C 1017.6 hPa NNE 4 km/h 11.3 km/h 76.7% 0.0 mm
10:24 24.1 °C 19.7 °C 1017.6 hPa NNE 5 km/h 11.3 km/h 76.8% 0.0 mm
10:29 24.2 °C 19.7 °C 1017.6 hPa North 5.2 km/h 13 km/h 76% 0.0 mm
10:34 24.3 °C 19.6 °C 1017.6 hPa NE 6.9 km/h 15.6 km/h 74.9% 0.0 mm
10:39 24.5 °C 19.5 °C 1017.6 hPa NE 7.4 km/h 20.9 km/h 73.5% 0.0 mm
10:44 24.7 °C 19.6 °C 1017.6 hPa NE 10.3 km/h 20.9 km/h 73.3% 0.0 mm
10:49 24.9 °C 19.5 °C 1017.7 hPa NE 10.3 km/h 20.9 km/h 72.2% 0.0 mm
10:54 25 °C 19.4 °C 1017.7 hPa NE 10 km/h 16.1 km/h 71% 0.0 mm
10:59 25.2 °C 19.5 °C 1017.7 hPa NE 9.7 km/h 21.7 km/h 70.8% 0.0 mm
11:04 25 °C 19.2 °C 1017.7 hPa NE 8.4 km/h 24.1 km/h 70.3% 0.0 mm
11:09 25.1 °C 19.3 °C 1017.7 hPa NE 8.9 km/h 24.1 km/h 70.6% 0.0 mm
11:14 24.9 °C 19.2 °C 1017.7 hPa NE 11.9 km/h 20.9 km/h 70.5% 0.0 mm
11:19 24.9 °C 19.1 °C 1017.7 hPa NE 12.1 km/h 20.9 km/h 70.3% 0.0 mm
11:24 24.9 °C 19.1 °C 1017.6 hPa NE 13 km/h 24.1 km/h 70% 0.0 mm
11:29 25 °C 19.2 °C 1017.6 hPa NE 13 km/h 24.1 km/h 70% 0.0 mm
11:34 25.2 °C 19 °C 1017.6 hPa NE 13 km/h 22.2 km/h 68.5% 0.0 mm
11:39 25.4 °C 19 °C 1017.6 hPa Este 12.9 km/h 22.5 km/h 68% 0.0 mm
11:44 25.7 °C 19.2 °C 1017.6 hPa ENE 12.2 km/h 18 km/h 67.2% 0.0 mm
11:49 25.8 °C 19.2 °C 1017.6 hPa NE 12 km/h 19.3 km/h 67% 0.0 mm
11:54 25.7 °C 19 °C 1017.5 hPa ENE 10.3 km/h 20.1 km/h 66.6% 0.0 mm
11:59 25.7 °C 18.5 °C 1017.5 hPa Este 10.6 km/h 22.2 km/h 64.6% 0.0 mm
12:04 25.7 °C 18.6 °C 1017.5 hPa ENE 11.9 km/h 22.5 km/h 64.8% 0.0 mm
12:09 25.7 °C 18.2 °C 1017.5 hPa NE 11.8 km/h 22.5 km/h 63.2% 0.0 mm
12:14 25.7 °C 18.1 °C 1017.5 hPa NE 11.1 km/h 22.5 km/h 62.9% 0.0 mm
12:19 26 °C 18.2 °C 1017.5 hPa ENE 11.4 km/h 24.5 km/h 62.4% 0.0 mm
12:24 26.2 °C 18.4 °C 1017.4 hPa Este 13 km/h 24.1 km/h 62% 0.0 mm
12:29 26.3 °C 18.6 °C 1017.3 hPa ENE 12.9 km/h 22.2 km/h 62.3% 0.0 mm
12:34 26.4 °C 18.7 °C 1017.3 hPa ENE 11.9 km/h 24.1 km/h 62.9% 0.0 mm
12:39 26.2 °C 18.6 °C 1017.2 hPa NE 12.4 km/h 28.2 km/h 63% 0.0 mm
12:44 26.2 °C 18.4 °C 1017.2 hPa ENE 16.1 km/h 27.4 km/h 62.3% 0.0 mm
12:49 26.3 °C 17.6 °C 1017.2 hPa NE 15.8 km/h 29.6 km/h 58.7% 0.0 mm
12:54 26.3 °C 17.4 °C 1017.2 hPa ENE 13.7 km/h 29 km/h 57.8% 0.0 mm
12:59 26.6 °C 17.5 °C 1017.2 hPa ENE 13.7 km/h 24.1 km/h 57.5% 0.0 mm
13:04 26.8 °C 17.8 °C 1017.2 hPa ENE 14 km/h 27 km/h 57.8% 0.0 mm
13:09 26.9 °C 17.8 °C 1017.1 hPa ENE 14 km/h 27.8 km/h 57.3% 0.0 mm
13:14 26.9 °C 17.5 °C 1017.0 hPa NE 13.7 km/h 27.4 km/h 56.5% 0.0 mm
13:19 27.1 °C 17.8 °C 1017.0 hPa ENE 13.7 km/h 25.9 km/h 57% 0.0 mm
13:24 27.3 °C 17.7 °C 1016.9 hPa ENE 13.7 km/h 25.7 km/h 55.7% 0.0 mm
13:29 27.2 °C 17.6 °C 1016.9 hPa ENE 13.7 km/h 27.8 km/h 55.6% 0.0 mm
13:34 27.1 °C 17.2 °C 1016.9 hPa ENE 13.7 km/h 29.6 km/h 54.7% 0.0 mm
13:39 27.1 °C 17.2 °C 1016.8 hPa ENE 13.9 km/h 29.8 km/h 54.5% 0.0 mm
13:44 27.2 °C 17.4 °C 1016.8 hPa ENE 15.6 km/h 30.6 km/h 55.1% 0.0 mm
13:49 27.3 °C 17.4 °C 1016.8 hPa ENE 15.6 km/h 31.7 km/h 54.9% 0.0 mm
13:54 27.3 °C 17.3 °C 1016.7 hPa Este 15.6 km/h 32.2 km/h 54.5% 0.0 mm
13:59 27.2 °C 17.4 °C 1016.6 hPa NE 15.7 km/h 29.8 km/h 54.9% 0.0 mm
14:04 27.3 °C 17.2 °C 1016.6 hPa NE 16.1 km/h 30.6 km/h 54% 0.0 mm
14:09 27.3 °C 17.7 °C 1016.6 hPa Este 16 km/h 29.6 km/h 55.7% 0.0 mm
14:14 27.4 °C 17.5 °C 1016.6 hPa NE 15.6 km/h 27.8 km/h 54.7% 0.0 mm
14:19 27.5 °C 17.6 °C 1016.6 hPa NE 15.5 km/h 27.4 km/h 54.7% 0.0 mm
14:24 27.7 °C 17.7 °C 1016.4 hPa ENE 14.8 km/h 25.9 km/h 54.6% 0.0 mm
14:29 27.8 °C 17.3 °C 1016.3 hPa ENE 14.6 km/h 25.7 km/h 52.9% 0.0 mm
14:34 27.7 °C 17.5 °C 1016.3 hPa Este 13.7 km/h 29.1 km/h 53.8% 0.0 mm
14:39 27.8 °C 17.4 °C 1016.3 hPa ENE 13.6 km/h 29.6 km/h 53.3% 0.0 mm
14:44 27.7 °C 17.2 °C 1016.3 hPa ENE 13 km/h 29 km/h 53% 0.0 mm
14:49 27.7 °C 17.3 °C 1016.3 hPa ENE 12.9 km/h 25.9 km/h 53% 0.0 mm
14:54 27.8 °C 17.3 °C 1016.2 hPa Este 12.2 km/h 24.1 km/h 53.1% 0.0 mm
14:59 27.8 °C 17.3 °C 1016.2 hPa Este 12.8 km/h 28.2 km/h 53% 0.0 mm
15:04 27.5 °C 17.1 °C 1016.2 hPa Este 15.6 km/h 29.6 km/h 53.2% 0.0 mm
15:09 27.7 °C 17.8 °C 1016.0 hPa ENE 15.3 km/h 29 km/h 54.9% 0.0 mm
15:14 27.7 °C 17.6 °C 1016.0 hPa ENE 13.7 km/h 25.7 km/h 54.1% 0.0 mm
15:19 27.6 °C 17.4 °C 1016.0 hPa NE 13.8 km/h 27.8 km/h 53.8% 0.0 mm
15:24 27.6 °C 17.6 °C 1016.0 hPa Este 14.8 km/h 27.4 km/h 54.6% 0.0 mm
15:29 27.7 °C 17 °C 1016.0 hPa ENE 14.8 km/h 25.7 km/h 52.3% 0.0 mm
15:34 27.6 °C 16.9 °C 1016.0 hPa NE 14.8 km/h 25.9 km/h 52.1% 0.0 mm
15:39 27.5 °C 17.1 °C 1015.9 hPa Este 14.7 km/h 25.7 km/h 53% 0.0 mm
15:44 27.3 °C 17.2 °C 1015.8 hPa ENE 13.7 km/h 25.1 km/h 54.1% 0.0 mm
15:49 27.4 °C 17.4 °C 1015.8 hPa Este 13.6 km/h 25.9 km/h 54.5% 0.0 mm
15:54 27.3 °C 17.5 °C 1015.7 hPa ENE 13 km/h 27.4 km/h 55% 0.0 mm
15:59 27.1 °C 17.4 °C 1015.7 hPa ENE 13.2 km/h 27.8 km/h 55.3% 0.0 mm
16:04 27.1 °C 17.6 °C 1015.8 hPa ENE 14 km/h 27.4 km/h 56% 0.0 mm
16:09 27.1 °C 17.7 °C 1015.8 hPa ENE 13.9 km/h 33.3 km/h 56.5% 0.0 mm
16:14 26.9 °C 17.7 °C 1015.8 hPa ENE 13 km/h 33.8 km/h 57.1% 0.0 mm
16:19 27 °C 18.1 °C 1015.8 hPa ENE 13 km/h 24.1 km/h 58% 0.0 mm
16:24 26.9 °C 17.7 °C 1015.7 hPa ENE 13 km/h 25.9 km/h 57.2% 0.0 mm
16:29 26.8 °C 17.7 °C 1015.7 hPa Este 13.4 km/h 25.7 km/h 57.4% 0.0 mm
16:34 26.7 °C 17.7 °C 1015.7 hPa ESE 15.6 km/h 28.2 km/h 57.8% 0.0 mm
16:39 26.8 °C 17.8 °C 1015.6 hPa ENE 15.7 km/h 30.9 km/h 58% 0.0 mm
16:44 26.7 °C 17.8 °C 1015.6 hPa ENE 16.1 km/h 32.2 km/h 58% 0.0 mm
16:49 26.7 °C 17.8 °C 1015.6 hPa ENE 15.8 km/h 29 km/h 58% 0.0 mm
16:54 26.7 °C 17.7 °C 1015.5 hPa Este 14 km/h 25.9 km/h 58.1% 0.0 mm
16:59 26.7 °C 17.6 °C 1015.5 hPa NE 13.8 km/h 22.5 km/h 57.2% 0.0 mm
17:04 26.7 °C 17.7 °C 1015.5 hPa NE 13 km/h 25.9 km/h 57.7% 0.0 mm
17:09 26.8 °C 17.6 °C 1015.3 hPa NE 13.3 km/h 34.3 km/h 57.3% 0.0 mm
17:14 26.6 °C 17.4 °C 1015.2 hPa ENE 14.8 km/h 33.8 km/h 57.1% 0.0 mm
17:19 26.6 °C 17.4 °C 1015.4 hPa ENE 15 km/h 29 km/h 57% 0.0 mm
17:24 26.6 °C 17.6 °C 1015.4 hPa ENE 16.4 km/h 28.6 km/h 57.7% 0.0 mm
17:29 26.8 °C 17.7 °C 1015.4 hPa NE 16.1 km/h 29.6 km/h 57.5% 0.0 mm
17:34 26.8 °C 17.6 °C 1015.4 hPa ENE 14 km/h 29 km/h 57% 0.0 mm
17:39 26.8 °C 17.5 °C 1015.3 hPa ENE 13.6 km/h 34.6 km/h 56.8% 0.0 mm
17:44 26.7 °C 17.5 °C 1015.3 hPa ENE 11.1 km/h 35.4 km/h 57% 0.0 mm
17:49 26.5 °C 17.4 °C 1015.3 hPa NE 11.6 km/h 35.4 km/h 57.3% 0.0 mm
17:54 26.4 °C 17.4 °C 1015.1 hPa ENE 14.8 km/h 29.6 km/h 58% 0.0 mm
17:59 26.3 °C 17.3 °C 1015.1 hPa ENE 15.1 km/h 29 km/h 57.8% 0.0 mm
18:04 26.3 °C 17.5 °C 1015.2 hPa Este 16.4 km/h 31.5 km/h 58.3% 0.0 mm
18:09 26.3 °C 17.6 °C 1015.2 hPa ENE 16.3 km/h 32.2 km/h 58.6% 0.0 mm
18:14 26.2 °C 17.3 °C 1015.2 hPa NE 15.6 km/h 33.5 km/h 58% 0.0 mm
18:19 26.2 °C 17.2 °C 1015.3 hPa NE 16 km/h 33.8 km/h 58% 0.0 mm
18:24 26.1 °C 17.2 °C 1015.3 hPa ENE 18 km/h 32.2 km/h 58% 0.0 mm
18:29 26.2 °C 16.9 °C 1015.3 hPa NE 17.8 km/h 35.2 km/h 56.6% 0.0 mm
18:34 26.2 °C 16.9 °C 1015.3 hPa NE 16.1 km/h 35.4 km/h 56.6% 0.0 mm
18:39 26.1 °C 17.2 °C 1015.2 hPa NE 15.8 km/h 27.8 km/h 58% 0.0 mm
18:44 25.9 °C 17.4 °C 1015.2 hPa NE 14 km/h 27.4 km/h 59.3% 0.0 mm
18:49 25.8 °C 17.6 °C 1015.2 hPa NE 13.9 km/h 25.9 km/h 60.4% 0.0 mm
18:54 25.7 °C 17.6 °C 1015.2 hPa NE 13 km/h 29.6 km/h 60.8% 0.0 mm
18:59 25.6 °C 17.7 °C 1015.2 hPa ENE 13 km/h 29 km/h 61.7% 0.0 mm
19:04 25.6 °C 17.5 °C 1015.4 hPa NE 13 km/h 27.8 km/h 61.2% 0.0 mm
19:09 25.4 °C 17.3 °C 1015.4 hPa NE 13.4 km/h 28.2 km/h 61% 0.0 mm
19:14 25.3 °C 17.4 °C 1015.4 hPa NE 15.6 km/h 27.8 km/h 61.7% 0.0 mm
19:19 25.3 °C 17.4 °C 1015.5 hPa ENE 15.4 km/h 35.2 km/h 61.7% 0.0 mm
19:24 25.2 °C 17.1 °C 1015.5 hPa NE 14 km/h 35.4 km/h 61% 0.0 mm
19:29 25.1 °C 17.3 °C 1015.5 hPa NE 14.4 km/h 30.6 km/h 62% 0.0 mm
19:34 24.9 °C 16.9 °C 1015.5 hPa NE 16.4 km/h 30.6 km/h 61.3% 0.0 mm
19:39 24.9 °C 17.1 °C 1015.5 hPa NE 16.5 km/h 29.6 km/h 62% 0.0 mm
19:44 24.8 °C 17 °C 1015.5 hPa ENE 17.2 km/h 25.9 km/h 62% 0.0 mm
19:49 24.8 °C 17 °C 1015.8 hPa NE 16.7 km/h 28.2 km/h 62% 0.0 mm
19:54 24.8 °C 17 °C 1015.8 hPa ENE 13.7 km/h 27.4 km/h 62% 0.0 mm
19:59 24.7 °C 17 °C 1015.8 hPa ENE 13.4 km/h 22.5 km/h 62.1% 0.0 mm
20:04 24.7 °C 16.9 °C 1016.0 hPa ENE 11.9 km/h 19.3 km/h 62% 0.0 mm
20:09 24.7 °C 17 °C 1016.0 hPa NE 11.8 km/h 29.6 km/h 62.5% 0.0 mm
20:14 24.6 °C 17.1 °C 1016.0 hPa NE 11.1 km/h 29 km/h 63% 0.0 mm
20:19 24.5 °C 17.2 °C 1016.2 hPa ENE 11.1 km/h 22.5 km/h 64% 0.0 mm
20:24 24.4 °C 17.2 °C 1016.2 hPa NE 11.1 km/h 24.1 km/h 64% 0.0 mm
20:29 24.4 °C 17.2 °C 1016.2 hPa ENE 11.3 km/h 24.1 km/h 64.4% 0.0 mm
20:34 24.3 °C 17.3 °C 1016.4 hPa NE 12.2 km/h 22.5 km/h 65% 0.0 mm
20:39 24.3 °C 17.3 °C 1016.4 hPa ENE 12.2 km/h 23.3 km/h 65% 0.0 mm
20:44 24.2 °C 17.2 °C 1016.4 hPa NE 11.9 km/h 22.5 km/h 65% 0.0 mm
20:49 24.2 °C 17.2 °C 1016.4 hPa NE 11.7 km/h 19.3 km/h 65% 0.0 mm
20:54 24.2 °C 17.2 °C 1016.4 hPa NE 10 km/h 20.4 km/h 65% 0.0 mm
20:59 24.1 °C 17.1 °C 1016.4 hPa NE 9.7 km/h 20.9 km/h 65% 0.0 mm
21:04 24.1 °C 17.1 °C 1016.7 hPa NE 8.7 km/h 16.7 km/h 65% 0.0 mm
21:09 24 °C 17 °C 1016.7 hPa ENE 8.7 km/h 16.1 km/h 65% 0.0 mm
21:14 24 °C 17.3 °C 1016.7 hPa ENE 8.4 km/h 12.9 km/h 65.9% 0.0 mm
21:19 23.9 °C 17.2 °C 1016.9 hPa NE 8 km/h 9.7 km/h 65.9% 0.0 mm
21:24 23.9 °C 17.2 °C 1016.9 hPa NE 5.8 km/h 9.7 km/h 66% 0.0 mm
21:29 23.9 °C 17.1 °C 1016.9 hPa ENE 5.7 km/h 9.7 km/h 65.6% 0.0 mm
21:34 23.9 °C 17 °C 1017.2 hPa NE 5 km/h 11.9 km/h 65.5% 0.0 mm
21:39 23.8 °C 17.1 °C 1017.2 hPa NE 5.1 km/h 11.3 km/h 66% 0.0 mm
21:44 23.8 °C 17.1 °C 1017.2 hPa ENE 5.8 km/h 9.7 km/h 66% 0.0 mm
21:49 23.8 °C 17.1 °C 1017.3 hPa ENE 5.5 km/h 9.7 km/h 66% 0.0 mm
21:54 23.8 °C 17.1 °C 1017.3 hPa NE 3.9 km/h 8.4 km/h 66% 0.0 mm
21:59 23.8 °C 17.1 °C 1017.3 hPa NE 4 km/h 9.5 km/h 66% 0.0 mm
22:04 23.8 °C 17.1 °C 1017.3 hPa NE 4.7 km/h 9.7 km/h 66% 0.0 mm
22:09 23.7 °C 17 °C 1017.3 hPa NE 4.7 km/h 9.7 km/h 66% 0.0 mm
22:14 23.7 °C 16.9 °C 1017.3 hPa NNE 4.7 km/h 8 km/h 66% 0.0 mm
22:19 23.7 °C 16.9 °C 1017.3 hPa NE 4.7 km/h 9.3 km/h 66% 0.0 mm
22:24 23.7 °C 16.9 °C 1017.3 hPa ENE 4.7 km/h 9.7 km/h 66% 0.0 mm
22:29 23.7 °C 16.9 °C 1017.3 hPa Este 4.7 km/h 9.7 km/h 66% 0.0 mm
22:34 23.7 °C 16.9 °C 1017.6 hPa Este 4.7 km/h 9.7 km/h 66% 0.0 mm
22:39 23.7 °C 16.9 °C 1017.6 hPa ENE 4.5 km/h 8 km/h 66% 0.0 mm
22:44 23.6 °C 17.1 °C 1017.6 hPa ENE 3.9 km/h 11.1 km/h 66.9% 0.0 mm
22:49 23.6 °C 17.1 °C 1017.7 hPa NE 4 km/h 11.3 km/h 67% 0.0 mm
22:54 23.6 °C 17.1 °C 1017.7 hPa NNE 4.7 km/h 8 km/h 67% 0.0 mm
22:59 23.5 °C 17 °C 1017.7 hPa NNE 4.3 km/h 7.4 km/h 67.1% 0.0 mm
23:04 23.4 °C 17.2 °C 1017.7 hPa NNE 2.9 km/h 8 km/h 68% 0.0 mm
23:09 23.4 °C 17.1 °C 1017.6 hPa NE 3 km/h 8 km/h 68% 0.0 mm
23:14 23.3 °C 17.1 °C 1017.6 hPa NE 3.9 km/h 8 km/h 68% 0.0 mm
23:19 23.3 °C 17.1 °C 1017.6 hPa NE 3.6 km/h 3.9 km/h 68% 0.0 mm
23:24 23.3 °C 17.1 °C 1017.6 hPa North 2.3 km/h 7.4 km/h 68% 0.0 mm
23:29 23.3 °C 17.2 °C 1017.6 hPa NNO 2.4 km/h 8 km/h 68.8% 0.0 mm
23:34 23.2 °C 17.2 °C 1017.6 hPa NNO 3.2 km/h 8 km/h 69% 0.0 mm
23:39 23.2 °C 17.2 °C 1017.6 hPa NNO 3.3 km/h 8 km/h 69% 0.0 mm
23:44 23.2 °C 17.2 °C 1017.6 hPa NNO 3.9 km/h 8 km/h 69% 0.0 mm
23:49 23.2 °C 17.2 °C 1017.6 hPa NNO 4 km/h 8 km/h 69% 0.0 mm
23:54 23.1 °C 17.2 °C 1017.5 hPa NO 4.7 km/h 8 km/h 69.3% 0.0 mm
23:59 23.1 °C 17.3 °C 1017.5 hPa NO 4.5 km/h 8 km/h 70% 0.0 mm
Murcia-Puente Tocinos, España
Compliments of Weather Underground - 3 mb

La estación de MeteoMurcia.com, publica sus datos en los siguientes proyectos:

Weather Underground PWS IMURCIAP2 Meteoclimatic www.awekas.at

W3Counter
Web Analytics